Station Historical Data
Daily Summary for July 8, 2017 Units:  Metric    English   Both
« Previous Day
Next Day »
Daily Weekly Monthly Yearly Custom
  High: Low: Average:
Temperature: 25.8 °C 17.8 °C 21.8 °C
Dew Point: 19.9 °C 9 °C 14.6 °C
Humidity: 89% 40% 66%
Wind Speed: 17.7km/h 0km/h 6.3km/h
Wind Gust: 33.8km/h - -
Wind- - WNW
Pressure: 1013.1 hPa 1004.6 hPa -
Precipitation: 0 mm    
Historical Graphs
 
 
Tabular Data for July 8, 2017
Time Temperature Dew Point Pressure Wind Wind Speed Wind Gust Humidity Rainfall Rate (Hourly)
00:04 22.3 °C 19.9 °C 1005.6 hPa WSW 9.7 km/h 12.9 km/h 86% 0 mm
00:09 22.4 °C 19.9 °C 1005.6 hPa SW 4.8 km/h 14.5 km/h 86% 0 mm
00:14 22.3 °C 19.9 °C 1005.6 hPa South 3.2 km/h 12.9 km/h 86% 0 mm
00:19 22.3 °C 19.8 °C 1005.3 hPa West 8 km/h 9.7 km/h 86% 0 mm
00:24 22.3 °C 19.6 °C 1005.3 hPa West 6.4 km/h 9.7 km/h 85% 0 mm
00:29 22.2 °C 19.6 °C 1005.3 hPa WSW 6.4 km/h 12.9 km/h 85% 0 mm
00:34 22.2 °C 19.5 °C 1005.3 hPa WSW 6.4 km/h 12.9 km/h 85% 0 mm
00:39 22.1 °C 19.4 °C 1005.3 hPa WSW 4.8 km/h 12.9 km/h 85% 0 mm
00:44 22.1 °C 19.4 °C 1005.3 hPa SW 1.6 km/h 9.7 km/h 85% 0 mm
00:49 22 °C 19.6 °C 1005 hPa SW 9.7 km/h 9.7 km/h 86% 0 mm
00:54 22.1 °C 19.6 °C 1005 hPa SSW 4.8 km/h 11.3 km/h 86% 0 mm
00:59 22.1 °C 19.7 °C 1005 hPa SSW 4.8 km/h 16.1 km/h 86% 0 mm
01:04 22.1 °C 19.7 °C 1005 hPa SSW 4.8 km/h 16.1 km/h 86% 0 mm
01:09 22.1 °C 19.7 °C 1005 hPa SW 6.4 km/h 11.3 km/h 86% 0 mm
01:14 22.1 °C 19.6 °C 1004.6 hPa SW 6.4 km/h 19.3 km/h 86% 0 mm
01:19 22.1 °C 19.6 °C 1004.6 hPa SW 12.9 km/h 17.7 km/h 86% 0 mm
01:24 22.1 °C 19.6 °C 1004.6 hPa WSW 8 km/h 24.1 km/h 86% 0 mm
01:29 21.8 °C 18.6 °C 1005 hPa WSW 9.7 km/h 24.1 km/h 82% 0 mm
01:34 20.7 °C 17.7 °C 1005 hPa NNW 8 km/h 19.3 km/h 83% 0 mm
01:39 20.1 °C 17.7 °C 1005 hPa North 4.8 km/h 19.3 km/h 86% 0 mm
01:44 19.8 °C 17.6 °C 1005.3 hPa Calm   3.2 km/h 87% 0 mm
01:49 19.8 °C 17.6 °C 1005.3 hPa Calm     87% 0 mm
01:54 19.8 °C 17.7 °C 1005 hPa Calm     88% 0 mm
01:59 19.9 °C 17.8 °C 1005 hPa Calm   4.8 km/h 88% 0 mm
02:04 20.3 °C 18.2 °C 1005 hPa SW 1.6 km/h 8 km/h 88% 0 mm
02:09 20.7 °C 18.8 °C 1005 hPa West 9.7 km/h 11.3 km/h 89% 0 mm
02:14 21.2 °C 19.3 °C 1005 hPa West 8 km/h 19.3 km/h 89% 0 mm
02:19 21.4 °C 19.4 °C 1005 hPa WSW 9.7 km/h 19.3 km/h 88% 0 mm
02:24 21.6 °C 19.3 °C 1005 hPa WSW 8 km/h 19.3 km/h 87% 0 mm
02:29 21.6 °C 19.1 °C 1005 hPa WSW 9.7 km/h 24.1 km/h 86% 0 mm
02:34 21.4 °C 19 °C 1005 hPa WSW 9.7 km/h 24.1 km/h 86% 0 mm
02:39 21.4 °C 19 °C 1004.6 hPa WSW 9.7 km/h 22.5 km/h 86% 0 mm
02:44 21.4 °C 18.9 °C 1004.6 hPa WSW 9.7 km/h 22.5 km/h 86% 0 mm
02:49 21.3 °C 18.9 °C 1004.6 hPa WSW 9.7 km/h 17.7 km/h 86% 0 mm
02:54 21.3 °C 18.9 °C 1005 hPa WSW 3.2 km/h 22.5 km/h 86% 0 mm
02:59 21.3 °C 18.9 °C 1005 hPa West 17.7 km/h 22.5 km/h 86% 0 mm
03:04 21.4 °C 18.9 °C 1005 hPa WSW 12.9 km/h 16.1 km/h 86% 0 mm
03:09 21.4 °C 19.2 °C 1005 hPa SW 4.8 km/h 17.7 km/h 87% 0 mm
03:14 21.5 °C 19.2 °C 1004.6 hPa WSW 9.7 km/h 16.1 km/h 87% 0 mm
03:19 21.5 °C 19.2 °C 1004.6 hPa WSW 9.7 km/h 25.7 km/h 87% 0 mm
03:24 21.4 °C 19.2 °C 1004.6 hPa WSW 8 km/h 25.7 km/h 87% 0 mm
03:29 21.4 °C 19.2 °C 1004.6 hPa WSW 8 km/h 19.3 km/h 87% 0 mm
03:34 21.4 °C 19.1 °C 1004.6 hPa WSW 8 km/h 19.3 km/h 87% 0 mm
03:39 21.4 °C 19.1 °C 1004.6 hPa WSW 8 km/h 20.9 km/h 87% 0 mm
03:44 21.4 °C 19.2 °C 1004.6 hPa WSW 9.7 km/h 20.9 km/h 87% 0 mm
03:49 21.4 °C 19.1 °C 1004.6 hPa WNW 8 km/h 19.3 km/h 87% 0 mm
03:54 21.3 °C 19.1 °C 1004.6 hPa West 8 km/h 19.3 km/h 87% 0 mm
03:59 21.3 °C 19 °C 1004.6 hPa West 8 km/h 19.3 km/h 87% 0 mm
04:04 21.3 °C 19.1 °C 1004.6 hPa West 6.4 km/h 14.5 km/h 87% 0 mm
04:09 21.3 °C 18.8 °C 1004.6 hPa West 4.8 km/h 16.1 km/h 86% 0 mm
04:14 21.3 °C 18.8 °C 1004.6 hPa West 4.8 km/h 16.1 km/h 86% 0 mm
04:19 21.3 °C 18.8 °C 1004.6 hPa WSW 6.4 km/h 16.1 km/h 86% 0 mm
04:24 21.2 °C 18.8 °C 1004.6 hPa West 6.4 km/h 16.1 km/h 86% 0 mm
04:29 21.2 °C 18.7 °C 1004.6 hPa West 4.8 km/h 9.7 km/h 86% 0 mm
04:34 21.1 °C 18.8 °C 1004.6 hPa West 4.8 km/h 8 km/h 87% 0 mm
04:39 21.1 °C 18.8 °C 1004.6 hPa West 1.6 km/h 11.3 km/h 87% 0 mm
04:44 21.1 °C 18.8 °C 1004.6 hPa WSW 6.4 km/h 12.9 km/h 87% 0 mm
04:49 21.1 °C 18.8 °C 1004.6 hPa West 6.4 km/h 9.7 km/h 87% 0 mm
04:54 21.1 °C 18.8 °C 1004.6 hPa West 4.8 km/h 11.3 km/h 87% 0 mm
04:59 21 °C 18.8 °C 1004.6 hPa West 6.4 km/h 12.9 km/h 87% 0 mm
05:04 20.9 °C 18.7 °C 1005 hPa WNW 8 km/h 12.9 km/h 87% 0 mm
05:09 20.9 °C 18.8 °C 1005 hPa WNW 6.4 km/h 11.3 km/h 88% 0 mm
05:14 20.8 °C 18.7 °C 1005 hPa West 6.4 km/h 14.5 km/h 88% 0 mm
05:19 20.6 °C 18.4 °C 1005 hPa WNW 3.2 km/h 14.5 km/h 87% 0 mm
05:24 20.6 °C 18.1 °C 1004.6 hPa WNW 6.4 km/h 14.5 km/h 86% 0 mm
05:29 20.4 °C 18 °C 1005 hPa WNW 6.4 km/h 11.3 km/h 86% 0 mm
05:34 20.4 °C 17.9 °C 1005 hPa WNW 1.6 km/h 11.3 km/h 86% 0 mm
05:39 20.3 °C 17.8 °C 1005.3 hPa West 3.2 km/h 8 km/h 86% 0 mm
05:44 20.2 °C 17.7 °C 1005.3 hPa NW 4.8 km/h 8 km/h 86% 0 mm
05:49 20.1 °C 17.4 °C 1005.3 hPa NW 4.8 km/h 11.3 km/h 85% 0 mm
05:54 19.9 °C 17.1 °C 1005.3 hPa WNW 4.8 km/h 11.3 km/h 84% 0 mm
05:59 19.8 °C 17.1 °C 1005.3 hPa NW 4.8 km/h 9.7 km/h 84% 0 mm
06:04 19.8 °C 17 °C 1005.6 hPa NW 3.2 km/h 9.7 km/h 84% 0 mm
06:09 19.8 °C 17 °C 1005.6 hPa NW 3.2 km/h 8 km/h 84% 0 mm
06:14 19.8 °C 17.2 °C 1005.6 hPa WNW 6.4 km/h 6.4 km/h 85% 0 mm
06:19 19.7 °C 17.1 °C 1005.3 hPa WNW 1.6 km/h 8 km/h 85% 0 mm
06:24 19.7 °C 17.1 °C 1005.3 hPa WNW 1.6 km/h 8 km/h 85% 0 mm
06:29 19.7 °C 17.3 °C 1005.6 hPa NW 8 km/h 11.3 km/h 86% 0 mm
06:34 19.7 °C 17.3 °C 1005.6 hPa WNW 4.8 km/h 11.3 km/h 86% 0 mm
06:39 19.5 °C 17.1 °C 1005.6 hPa North 6.4 km/h 11.3 km/h 86% 0 mm
06:44 19.4 °C 17 °C 1005.6 hPa West 1.6 km/h 16.1 km/h 86% 0 mm
06:49 19.3 °C 16.9 °C 1006 hPa NW 12.9 km/h 17.7 km/h 86% 0 mm
06:54 19.2 °C 16.8 °C 1006 hPa WNW 6.4 km/h 17.7 km/h 86% 0 mm
06:59 19.2 °C 16.8 °C 1006 hPa WNW 8 km/h 14.5 km/h 86% 0 mm
07:04 19.2 °C 17 °C 1006 hPa WNW 6.4 km/h 14.5 km/h 87% 0 mm
07:09 19.2 °C 17 °C 1006.3 hPa NW 4.8 km/h 14.5 km/h 87% 0 mm
07:14 19.2 °C 17 °C 1006.3 hPa NW 6.4 km/h 16.1 km/h 87% 0 mm
07:19 19.2 °C 16.9 °C 1006.3 hPa NW 6.4 km/h 16.1 km/h 87% 0 mm
07:24 19.2 °C 16.9 °C 1006.7 hPa NW 4.8 km/h 12.9 km/h 87% 0 mm
07:29 19.2 °C 16.8 °C 1006.7 hPa NW 4.8 km/h 16.1 km/h 86% 0 mm
07:34 19.1 °C 16.7 °C 1006.7 hPa NW 11.3 km/h 16.1 km/h 86% 0 mm
07:39 19.2 °C 16.8 °C 1006.7 hPa WNW 4.8 km/h 19.3 km/h 86% 0 mm
07:44 19.2 °C 16.8 °C 1006.7 hPa NW 6.4 km/h 14.5 km/h 86% 0 mm
07:49 19.4 °C 17 °C 1006.7 hPa NW 6.4 km/h 12.9 km/h 86% 0 mm
07:54 19.2 °C 16.6 °C 1006.7 hPa NW 4.8 km/h 14.5 km/h 85% 0 mm
07:59 19.2 °C 16.6 °C 1006.7 hPa NW 6.4 km/h 14.5 km/h 85% 0 mm
08:04 19.2 °C 16.6 °C 1007 hPa NW 6.4 km/h 19.3 km/h 85% 0 mm
08:09 19.1 °C 16.5 °C 1007 hPa NW 6.4 km/h 19.3 km/h 85% 0 mm
08:14 19.1 °C 16.6 °C 1007 hPa WNW 6.4 km/h 12.9 km/h 85% 0 mm
08:19 19.2 °C 16.6 °C 1007 hPa WNW 6.4 km/h 12.9 km/h 85% 0 mm
08:24 19.1 °C 16.3 °C 1007.3 hPa Calm   8 km/h 84% 0 mm
08:29 19.1 °C 16.3 °C 1007.3 hPa NNW 4.8 km/h 8 km/h 84% 0 mm
08:34 19.1 °C 16.3 °C 1007.3 hPa NW 4.8 km/h 12.9 km/h 84% 0 mm
08:39 19 °C 16.2 °C 1007.7 hPa NNW 6.4 km/h 12.9 km/h 84% 0 mm
08:44 19.1 °C 16.3 °C 1007.7 hPa West 1.6 km/h 16.1 km/h 84% 0 mm
08:49 19.1 °C 16.1 °C 1007.7 hPa WNW 6.4 km/h 14.5 km/h 83% 0 mm
08:54 19 °C 16.1 °C 1007.7 hPa NW 4.8 km/h 9.7 km/h 83% 0 mm
08:59 19.1 °C 16.1 °C 1007.7 hPa NW 4.8 km/h 11.3 km/h 83% 0 mm
09:04 19.3 °C 16.2 °C 1008 hPa NW 4.8 km/h 11.3 km/h 82% 0 mm
09:09 19.4 °C 16.1 °C 1008 hPa NW 6.4 km/h 16.1 km/h 81% 0 mm
09:14 19.4 °C 16.3 °C 1008 hPa NW 6.4 km/h 16.1 km/h 82% 0 mm
09:19 19.6 °C 16.2 °C 1008.4 hPa WNW 6.4 km/h 12.9 km/h 81% 0 mm
09:24 19.7 °C 16.1 °C 1008.4 hPa NNW 9.7 km/h 14.5 km/h 80% 0 mm
09:29 19.9 °C 16.1 °C 1008.4 hPa NW 6.4 km/h 16.1 km/h 79% 0 mm
09:34 20.5 °C 16.1 °C 1008.7 hPa NW 4.8 km/h 16.1 km/h 76% 0 mm
09:39 21.2 °C 16.6 °C 1008.7 hPa WNW 8 km/h 11.3 km/h 75% 0 mm
09:44 21.4 °C 16.6 °C 1008.7 hPa NW 3.2 km/h 9.7 km/h 74% 0 mm
09:49 20.9 °C 16.3 °C 1008.7 hPa West 8 km/h 9.7 km/h 75% 0 mm
09:54 20.5 °C 16.1 °C 1008.7 hPa NW 6.4 km/h 14.5 km/h 76% 0 mm
09:59 20.6 °C 15.9 °C 1008.7 hPa WNW 6.4 km/h 14.5 km/h 75% 0 mm
10:04 20.5 °C 16.1 °C 1008.7 hPa WNW 6.4 km/h 14.5 km/h 76% 0 mm
10:09 21.3 °C 16.3 °C 1008.7 hPa North 4.8 km/h 12.9 km/h 73% 0 mm
10:14 21.7 °C 16.2 °C 1008.7 hPa NW 11.3 km/h 11.3 km/h 71% 0 mm
10:19 21.2 °C 15.9 °C 1008.7 hPa WNW 4.8 km/h 14.5 km/h 72% 0 mm
10:24 21.6 °C 16.9 °C 1008.7 hPa NNW 8 km/h 11.3 km/h 75% 0 mm
10:29 22.2 °C 16.7 °C 1008.7 hPa NW 6.4 km/h 12.9 km/h 71% 0 mm
10:34 22.5 °C 16.3 °C 1009 hPa NW 6.4 km/h 19.3 km/h 68% 0 mm
10:39 21.8 °C 16.3 °C 1009 hPa NW 6.4 km/h 19.3 km/h 71% 0 mm
10:44 21.5 °C 16 °C 1009 hPa NW 8 km/h 17.7 km/h 71% 0 mm
10:49 21.1 °C 16 °C 1009 hPa NNW 3.2 km/h 17.7 km/h 73% 0 mm
10:54 20.8 °C 15.8 °C 1009 hPa NW 12.9 km/h 19.3 km/h 73% 0 mm
10:59 20.9 °C 15.9 °C 1009 hPa West 3.2 km/h 14.5 km/h 73% 0 mm
11:04 21.9 °C 16.4 °C 1009 hPa NW 8 km/h 11.3 km/h 71% 0 mm
11:09 21.8 °C 16.1 °C 1009.4 hPa NNW 6.4 km/h 17.7 km/h 70% 0 mm
11:14 21.2 °C 15.7 °C 1009.4 hPa NNW 8 km/h 19.3 km/h 71% 0 mm
11:19 21.7 °C 15.8 °C 1009.4 hPa North 11.3 km/h 12.9 km/h 69% 0 mm
11:24 22.3 °C 16.3 °C 1009.4 hPa NW 6.4 km/h 16.1 km/h 69% 0 mm
11:29 21.7 °C 15.7 °C 1009.4 hPa WNW 8 km/h 16.1 km/h 69% 0 mm
11:34 21.5 °C 15.6 °C 1009.4 hPa WNW 8 km/h 17.7 km/h 69% 0 mm
11:39 21.9 °C 15.9 °C 1009.4 hPa NW 8 km/h 17.7 km/h 69% 0 mm
11:44 22.6 °C 15.9 °C 1009.4 hPa WNW 8 km/h 19.3 km/h 66% 0 mm
11:49 22.4 °C 15.7 °C 1009.4 hPa NW 11.3 km/h 19.3 km/h 66% 0 mm
11:54 22.3 °C 15.8 °C 1009.4 hPa WNW 8 km/h 19.3 km/h 67% 0 mm
11:59 22.2 °C 16.1 °C 1009.4 hPa NW 14.5 km/h 17.7 km/h 68% 0 mm
12:04 22.4 °C 16.2 °C 1009.4 hPa WNW 8 km/h 17.7 km/h 68% 0 mm
12:09 22.7 °C 16 °C 1009.4 hPa West 6.4 km/h 11.3 km/h 66% 0 mm
12:14 22.6 °C 15.9 °C 1009.4 hPa NW 6.4 km/h 14.5 km/h 66% 0 mm
12:19 23.1 °C 15.4 °C 1009.4 hPa WNW 8 km/h 19.3 km/h 62% 0 mm
12:24 23.3 °C 15.8 °C 1009.4 hPa NW 8 km/h 16.1 km/h 63% 0 mm
12:29 23.2 °C 15.6 °C 1009.4 hPa NW 8 km/h 22.5 km/h 62% 0 mm
12:34 23.4 °C 15.2 °C 1009.4 hPa NW 9.7 km/h 22.5 km/h 60% 0 mm
12:39 23.9 °C 15.7 °C 1009.4 hPa NW 9.7 km/h 22.5 km/h 60% 0 mm
12:44 24.1 °C 15.6 °C 1009.4 hPa WNW 8 km/h 16.1 km/h 59% 0 mm
12:49 24.1 °C 15.3 °C 1009.4 hPa NW 8 km/h 16.1 km/h 58% 0 mm
12:54 23.8 °C 15.1 °C 1009.4 hPa WNW 4.8 km/h 14.5 km/h 58% 0 mm
12:59 24.1 °C 15 °C 1009.4 hPa NW 11.3 km/h 20.9 km/h 57% 0 mm
13:04 24.6 °C 15.2 °C 1009.4 hPa WNW 3.2 km/h 24.1 km/h 56% 0 mm
13:09 25.1 °C 16.5 °C 1009.4 hPa West 6.4 km/h 16.1 km/h 59% 0 mm
13:14 24.7 °C 15.3 °C 1009.4 hPa WNW 6.4 km/h 12.9 km/h 56% 0 mm
13:19 24.4 °C 14.8 °C 1009.4 hPa West 6.4 km/h 22.5 km/h 55% 0 mm
13:24 24.8 °C 15.7 °C 1009.4 hPa NNW 12.9 km/h 14.5 km/h 57% 0 mm
13:29 24.3 °C 14.7 °C 1009.4 hPa WNW 9.7 km/h 19.3 km/h 55% 0 mm
13:34 24.7 °C 15 °C 1009.4 hPa WNW 9.7 km/h 19.3 km/h 55% 0 mm
13:39 25 °C 15.6 °C 1009.4 hPa NW 8 km/h 17.7 km/h 56% 0 mm
13:44 25.2 °C 14.9 °C 1009.4 hPa NW 6.4 km/h 20.9 km/h 53% 0 mm
13:49 24.7 °C 14.8 °C 1009.4 hPa WNW 17.7 km/h 22.5 km/h 54% 0 mm
13:54 24.8 °C 14.6 °C 1009.4 hPa WNW 9.7 km/h 22.5 km/h 53% 0 mm
13:59 24.8 °C 15.7 °C 1009.4 hPa WNW 8 km/h 17.7 km/h 57% 0 mm
14:04 24.1 °C 14.5 °C 1009.4 hPa NW 6.4 km/h 14.5 km/h 55% 0 mm
14:09 24.2 °C 15.2 °C 1009.4 hPa NW 8 km/h 20.9 km/h 57% 0 mm
14:14 23.9 °C 14.6 °C 1009.4 hPa NW 9.7 km/h 22.5 km/h 56% 0 mm
14:19 23.7 °C 14.4 °C 1009.4 hPa NW 9.7 km/h 22.5 km/h 56% 0 mm
14:24 23.9 °C 14.6 °C 1009.4 hPa WNW 6.4 km/h 17.7 km/h 56% 0 mm
14:29 23.9 °C 14.3 °C 1009.7 hPa West 14.5 km/h 16.1 km/h 55% 0 mm
14:34 23.8 °C 14.5 °C 1009.4 hPa West 14.5 km/h 29 km/h 56% 0 mm
14:39 24.1 °C 14.2 °C 1009.4 hPa WNW 4.8 km/h 16.1 km/h 54% 0 mm
14:44 24.2 °C 14.6 °C 1009.4 hPa West 1.6 km/h 12.9 km/h 55% 0 mm
14:49 24.4 °C 14.2 °C 1009.4 hPa WNW 12.9 km/h 19.3 km/h 53% 0 mm
14:54 24.7 °C 14.2 °C 1009.7 hPa West 11.3 km/h 19.3 km/h 52% 0 mm
14:59 25.3 °C 13.8 °C 1009.7 hPa WNW 11.3 km/h 24.1 km/h 49% 0 mm
15:04 25.6 °C 14.4 °C 1009.7 hPa WNW 11.3 km/h 24.1 km/h 50% 0 mm
15:09 25.8 °C 13.7 °C 1009.7 hPa WNW 11.3 km/h 29 km/h 47% 0 mm
15:14 25.6 °C 13.4 °C 1009.7 hPa WNW 12.9 km/h 29 km/h 47% 0 mm
15:19 24.8 °C 13.1 °C 1009.7 hPa NW 6.4 km/h 19.3 km/h 48% 0 mm
15:24 25 °C 13.8 °C 1009.7 hPa NW 8 km/h 17.7 km/h 50% 0 mm
15:29 25.4 °C 13.6 °C 1009.7 hPa NW 8 km/h 25.7 km/h 48% 0 mm
15:34 25.6 °C 14.7 °C 1009.7 hPa NW 9.7 km/h 25.7 km/h 51% 0 mm
15:39 25.6 °C 13.4 °C 1009.7 hPa NW 6.4 km/h 33.8 km/h 47% 0 mm
15:44 25.7 °C 13.2 °C 1009.7 hPa NW 4.8 km/h 19.3 km/h 46% 0 mm
15:49 25.3 °C 13.2 °C 1009.7 hPa NW 3.2 km/h 19.3 km/h 47% 0 mm
15:54 25.1 °C 12.9 °C 1009.7 hPa NNE 3.2 km/h 20.9 km/h 47% 0 mm
15:59 25.6 °C 13.4 °C 1009.7 hPa NNW 9.7 km/h 20.9 km/h 47% 0 mm
16:04 24.4 °C 13.1 °C 1010 hPa NNW 9.7 km/h 16.1 km/h 49% 0 mm
16:09 24.4 °C 12.4 °C 1010 hPa NNW 9.7 km/h 19.3 km/h 47% 0 mm
16:14 24.8 °C 13 °C 1010 hPa NW 9.7 km/h 24.1 km/h 48% 0 mm
16:19 24.8 °C 12.4 °C 1010 hPa NNW 8 km/h 24.1 km/h 46% 0 mm
16:24 24.8 °C 11.7 °C 1010 hPa NNW 4.8 km/h 19.3 km/h 44% 0 mm
16:29 24.8 °C 10.6 °C 1010 hPa NW 9.7 km/h 20.9 km/h 41% 0 mm
16:34 24.7 °C 11.7 °C 1010.4 hPa NNW 8 km/h 16.1 km/h 44% 0 mm
16:39 24.5 °C 10.7 °C 1010.4 hPa West 11.3 km/h 20.9 km/h 42% 0 mm
16:44 25.1 °C 10.9 °C 1010.4 hPa NNW 3.2 km/h 19.3 km/h 41% 0 mm
16:49 25.1 °C 10.9 °C 1010.4 hPa NNW 8 km/h 24.1 km/h 41% 0 mm
16:54 24.8 °C 10.3 °C 1010.4 hPa NNW 8 km/h 24.1 km/h 40% 0 mm
16:59 24.6 °C 10.4 °C 1010.4 hPa NNW 8 km/h 20.9 km/h 41% 0 mm
17:04 24.7 °C 11.2 °C 1010.4 hPa NNW 6.4 km/h 17.7 km/h 43% 0 mm
17:09 24.6 °C 10.1 °C 1010.4 hPa NNW 6.4 km/h 19.3 km/h 40% 0 mm
17:14 24.2 °C 10.1 °C 1010.4 hPa NNW 8 km/h 20.9 km/h 41% 0 mm
17:19 24.3 °C 10.2 °C 1010.4 hPa NNW 9.7 km/h 24.1 km/h 41% 0 mm
17:24 24.1 °C 10.1 °C 1010.4 hPa North 8 km/h 19.3 km/h 41% 0 mm
17:29 24.1 °C 9.7 °C 1010.4 hPa NNW 8 km/h 17.7 km/h 40% 0 mm
17:34 24.2 °C 9.8 °C 1010.4 hPa WNW 6.4 km/h 19.3 km/h 40% 0 mm
17:39 24.3 °C 10.2 °C 1010.4 hPa NNW 3.2 km/h 14.5 km/h 41% 0 mm
17:44 24.3 °C 10.2 °C 1010.4 hPa NNE 6.4 km/h 19.3 km/h 41% 0 mm
17:49 24 °C 9.9 °C 1010.7 hPa NW 14.5 km/h 17.7 km/h 41% 0 mm
17:54 23.8 °C 9.4 °C 1010.4 hPa NNW 8 km/h 22.5 km/h 40% 0 mm
17:59 23.8 °C 10.2 °C 1010.4 hPa NNW 8 km/h 22.5 km/h 42% 0 mm
18:04 23.8 °C 9.8 °C 1010.4 hPa NNW 8 km/h 16.1 km/h 41% 0 mm
18:09 23.8 °C 9.4 °C 1010.4 hPa NNW 6.4 km/h 14.5 km/h 40% 0 mm
18:14 23.8 °C 9.8 °C 1010.4 hPa NNW 6.4 km/h 14.5 km/h 41% 0 mm
18:19 23.5 °C 9.5 °C 1010.4 hPa WNW 3.2 km/h 16.1 km/h 41% 0 mm
18:24 23.2 °C 9.9 °C 1010.4 hPa NW 6.4 km/h 16.1 km/h 43% 0 mm
18:29 23.5 °C 9.5 °C 1010.4 hPa NW 6.4 km/h 17.7 km/h 41% 0 mm
18:34 23.5 °C 9.8 °C 1010.4 hPa NNE 6.4 km/h 14.5 km/h 42% 0 mm
18:39 23.3 °C 9.3 °C 1010.7 hPa WNW 3.2 km/h 17.7 km/h 41% 0 mm
18:44 23.4 °C 10.2 °C 1010.7 hPa WNW 3.2 km/h 14.5 km/h 43% 0 mm
18:49 23.4 °C 9.4 °C 1010.4 hPa NW 11.3 km/h 14.5 km/h 41% 0 mm
18:54 23.3 °C 9.7 °C 1010.7 hPa NW 6.4 km/h 14.5 km/h 42% 0 mm
18:59 23.3 °C 9.7 °C 1010.7 hPa NW 8 km/h 14.5 km/h 42% 0 mm
19:04 23.4 °C 9.4 °C 1010.7 hPa WNW 4.8 km/h 14.5 km/h 41% 0 mm
19:09 23.4 °C 9 °C 1010.7 hPa NW 1.6 km/h 9.7 km/h 40% 0 mm
19:14 23.4 °C 10.2 °C 1010.7 hPa NW 4.8 km/h 8 km/h 43% 0 mm
19:19 23.4 °C 10.1 °C 1010.7 hPa WNW 3.2 km/h 9.7 km/h 43% 0 mm
19:24 23.3 °C 10.1 °C 1010.7 hPa WNW 4.8 km/h 12.9 km/h 43% 0 mm
19:29 23.2 °C 9.6 °C 1010.7 hPa WNW 4.8 km/h 12.9 km/h 42% 0 mm
19:34 23.1 °C 9.8 °C 1010.7 hPa WNW 6.4 km/h 16.1 km/h 43% 0 mm
19:39 23.1 °C 9.8 °C 1010.7 hPa WNW 6.4 km/h 16.1 km/h 43% 0 mm
19:44 22.9 °C 9.7 °C 1010.7 hPa NW 4.8 km/h 11.3 km/h 43% 0 mm
19:49 22.8 °C 9.6 °C 1011.1 hPa NW 4.8 km/h 12.9 km/h 43% 0 mm
19:54 22.7 °C 9.4 °C 1011.1 hPa NNW 8 km/h 12.9 km/h 43% 0 mm
19:59 22.6 °C 9.7 °C 1011.1 hPa WNW 4.8 km/h 11.3 km/h 44% 0 mm
20:04 22.4 °C 9.6 °C 1011.1 hPa WNW 4.8 km/h 12.9 km/h 44% 0 mm
20:09 22.3 °C 9.8 °C 1011.1 hPa WNW 1.6 km/h 11.3 km/h 45% 0 mm
20:14 22.2 °C 9.7 °C 1011.1 hPa West 3.2 km/h 8 km/h 45% 0 mm
20:19 22.2 °C 10.1 °C 1011.1 hPa NW 4.8 km/h 8 km/h 46% 0 mm
20:24 22.2 °C 10.1 °C 1011.1 hPa WNW 4.8 km/h 9.7 km/h 46% 0 mm
20:29 22.1 °C 9.6 °C 1011.1 hPa NW 4.8 km/h 9.7 km/h 45% 0 mm
20:34 22.1 °C 9.9 °C 1011.1 hPa NW 3.2 km/h 9.7 km/h 46% 0 mm
20:39 21.9 °C 9.8 °C 1011.1 hPa Calm   4.8 km/h 46% 0 mm
20:44 21.8 °C 10.3 °C 1011.1 hPa WNW 6.4 km/h 11.3 km/h 48% 0 mm
20:49 21.8 °C 9.9 °C 1011.1 hPa WNW 4.8 km/h 17.7 km/h 47% 0 mm
20:54 21.8 °C 9.7 °C 1011.1 hPa NW 8 km/h 19.3 km/h 46% 0 mm
20:59 21.8 °C 10 °C 1011.1 hPa WNW 8 km/h 19.3 km/h 47% 0 mm
21:04 21.7 °C 10.2 °C 1011.4 hPa WNW 8 km/h 17.7 km/h 48% 0 mm
21:09 21.4 °C 10.3 °C 1011.4 hPa NW 1.6 km/h 8 km/h 49% 0 mm
21:14 21.2 °C 10.4 °C 1011.7 hPa Calm   6.4 km/h 50% 0 mm
21:19 21 °C 10.2 °C 1011.7 hPa West 1.6 km/h 6.4 km/h 50% 0 mm
21:24 20.8 °C 10 °C 1011.7 hPa West 3.2 km/h 6.4 km/h 50% 0 mm
21:29 20.7 °C 9.9 °C 1012.1 hPa WNW 1.6 km/h 8 km/h 50% 0 mm
21:34 20.4 °C 9.9 °C 1012.1 hPa NW 1.6 km/h 8 km/h 51% 0 mm
21:39 20.2 °C 10.1 °C 1012.1 hPa NNW 1.6 km/h 4.8 km/h 52% 0 mm
21:44 20.2 °C 10.1 °C 1012.1 hPa NW 4.8 km/h 8 km/h 52% 0 mm
21:49 20.2 °C 10.1 °C 1012.1 hPa NW 1.6 km/h 6.4 km/h 52% 0 mm
21:54 20.1 °C 9.9 °C 1012.4 hPa NW 1.6 km/h 6.4 km/h 52% 0 mm
21:59 20 °C 9.8 °C 1012.4 hPa NW 1.6 km/h 4.8 km/h 52% 0 mm
22:04 19.8 °C 10.2 °C 1012.4 hPa Calm   3.2 km/h 54% 0 mm
22:09 19.6 °C 10.1 °C 1012.4 hPa NW 1.6 km/h 4.8 km/h 54% 0 mm
22:14 19.7 °C 10.1 °C 1012.4 hPa NW 1.6 km/h 6.4 km/h 54% 0 mm
22:19 19.6 °C 10.1 °C 1012.8 hPa NW 1.6 km/h 4.8 km/h 54% 0 mm
22:24 19.6 °C 10.1 °C 1012.8 hPa NNW 1.6 km/h 6.4 km/h 54% 0 mm
22:29 19.4 °C 9.9 °C 1012.8 hPa Calm   4.8 km/h 54% 0 mm
22:34 19.3 °C 9.7 °C 1012.8 hPa WNW 3.2 km/h 4.8 km/h 54% 0 mm
22:39 19.2 °C 9.9 °C 1012.8 hPa NW 4.8 km/h 8 km/h 55% 0 mm
22:44 19.1 °C 9.8 °C 1012.8 hPa Calm   8 km/h 55% 0 mm
22:49 19 °C 9.8 °C 1012.8 hPa WSW 8 km/h 9.7 km/h 55% 0 mm
22:54 19 °C 9.8 °C 1012.8 hPa WNW 3.2 km/h 9.7 km/h 55% 0 mm
22:59 18.9 °C 9.7 °C 1012.8 hPa WNW 4.8 km/h 9.7 km/h 55% 0 mm
23:04 18.9 °C 9.7 °C 1012.8 hPa WNW 4.8 km/h 9.7 km/h 55% 0 mm
23:09 18.8 °C 9.6 °C 1012.8 hPa WNW 4.8 km/h 11.3 km/h 55% 0 mm
23:14 18.8 °C 9.9 °C 1013.1 hPa WNW 4.8 km/h 11.3 km/h 56% 0 mm
23:19 18.7 °C 9.8 °C 1013.1 hPa WNW 4.8 km/h 11.3 km/h 56% 0 mm
23:24 18.6 °C 9.9 °C 1012.8 hPa WNW 4.8 km/h 11.3 km/h 57% 0 mm
23:29 18.5 °C 10.1 °C 1013.1 hPa WNW 8 km/h 8 km/h 58% 0 mm
23:34 18.3 °C 9.9 °C 1013.1 hPa NW 3.2 km/h 8 km/h 58% 0 mm
23:39 18.3 °C 9.9 °C 1013.1 hPa WNW 6.4 km/h 11.3 km/h 58% 0 mm
23:44 18.3 °C 10.2 °C 1013.1 hPa WNW 4.8 km/h 9.7 km/h 59% 0 mm
23:49 18.1 °C 10.2 °C 1013.1 hPa Calm   6.4 km/h 60% 0 mm
23:54 17.9 °C 10.1 °C 1013.1 hPa WNW 3.2 km/h 6.4 km/h 60% 0 mm
23:59 17.8 °C 9.9 °C 1013.1 hPa Calm   6.4 km/h 60% 0 mm
Buffalo, New York, USA
Compliments of Weather Underground - 2.5 mb